createdAt,value
2022-08-21T00:00:48.225Z,100936.19
2022-08-21T00:01:50.344Z,100937.03
2022-08-21T00:03:05.895Z,100941.03
2022-08-21T00:04:09.413Z,100935.03
2022-08-21T00:05:11.885Z,100934.25
2022-08-21T00:06:15.953Z,100922.66
2022-08-21T00:07:19.694Z,100934.69
2022-08-21T00:08:22.115Z,100933.03
2022-08-21T00:09:24.243Z,100936.25
2022-08-21T00:10:27.373Z,100934.69
2022-08-21T00:11:29.776Z,100934.31
2022-08-21T00:12:32.394Z,100930.66
2022-08-21T00:13:35.361Z,100928.28
2022-08-21T00:14:37.957Z,100944.34
2022-08-21T00:15:42.345Z,100933.53
2022-08-21T00:16:44.568Z,100934.34
2022-08-21T00:17:46.860Z,100937.16
2022-08-21T00:18:50.553Z,100935.53
2022-08-21T00:19:52.647Z,100936.34
2022-08-21T00:20:55.341Z,100931.13
2022-08-21T00:21:57.527Z,100933.94
2022-08-21T00:22:59.704Z,100929.59
2022-08-21T00:24:02.318Z,100927.97
2022-08-21T00:25:07.644Z,100933.06
2022-08-21T00:26:10.968Z,100925.13
2022-08-21T00:27:13.182Z,100938.75
2022-08-21T00:28:20.221Z,100935.53
2022-08-21T00:29:24.624Z,100933.19
2022-08-21T00:30:28.120Z,100939.63
2022-08-21T00:31:32.432Z,100934.41
2022-08-21T00:32:35.353Z,100930.81
2022-08-21T00:33:37.508Z,100929.22
2022-08-21T00:34:39.712Z,100934.84
2022-08-21T00:35:44.026Z,100936.44
2022-08-21T00:36:46.199Z,100928.03
2022-08-21T00:37:48.351Z,100927.63
2022-08-21T00:38:50.491Z,100930.03
2022-08-21T00:39:52.647Z,100928.47
2022-08-21T00:41:00.267Z,100928.47
2022-08-21T00:42:16.226Z,100935.69
2022-08-21T00:43:22.827Z,100923.28
2022-08-21T00:44:26.454Z,100926.88
2022-08-21T00:45:29.140Z,100924.88
2022-08-21T00:46:31.962Z,100928.09
2022-08-21T00:47:34.281Z,100928.88
2022-08-21T00:48:37.002Z,100930.47
2022-08-21T00:49:40.649Z,100920.91
2022-08-21T00:50:55.016Z,100925.28
2022-08-21T00:52:02.420Z,100925.28
2022-08-21T00:53:07.906Z,100926.06
2022-08-21T00:54:18.912Z,100919.28
2022-08-21T00:55:33.043Z,100923.66
2022-08-21T00:56:35.906Z,100919.66
2022-08-21T00:57:47.553Z,100918.91
2022-08-21T00:58:54.940Z,100924.47
2022-08-21T01:00:01.237Z,100917.28
2022-08-21T01:01:09.108Z,100922.06
2022-08-21T01:02:11.569Z,100929.28
2022-08-21T01:03:18.138Z,100927.66
2022-08-21T01:04:22.317Z,100930.13
2022-08-21T01:05:25.886Z,100935.75
2022-08-21T01:06:28.116Z,100931.72
2022-08-21T01:07:31.906Z,100921.31
2022-08-21T01:08:35.774Z,100931.72
2022-08-21T01:09:38.620Z,100933.31
2022-08-21T01:10:41.528Z,100934.91
2022-08-21T01:11:44.835Z,100928.53
2022-08-21T01:12:47.158Z,100939.72
2022-08-21T01:13:53.282Z,100930.91
2022-08-21T01:14:55.553Z,100934.91
2022-08-21T01:16:00.999Z,100933.28
2022-08-21T01:17:04.471Z,100936.91
2022-08-21T01:18:10.491Z,100940.16
2022-08-21T01:19:14.171Z,100932.50
2022-08-21T01:20:17.605Z,100934.13
2022-08-21T01:21:27.814Z,100932.94
2022-08-21T01:22:30.636Z,100929.75
2022-08-21T01:23:34.668Z,100928.16
2022-08-21T01:24:37.624Z,100926.19
2022-08-21T01:25:39.851Z,100917.38
2022-08-21T01:26:43.519Z,100930.19
2022-08-21T01:27:46.050Z,100929.78
2022-08-21T01:29:03.338Z,100926.97
2022-08-21T01:30:21.057Z,100921.81
2022-08-21T01:31:26.420Z,100919.81
2022-08-21T01:32:28.846Z,100915.03
2022-08-21T01:33:31.371Z,100924.25
2022-08-21T01:34:37.611Z,100915.84
2022-08-21T01:35:40.430Z,100921.44
2022-08-21T01:36:43.883Z,100918.31
2022-08-21T01:37:47.346Z,100921.09
2022-08-21T01:38:51.824Z,100919.88
2022-08-21T01:39:54.792Z,100916.69
2022-08-21T01:40:57.610Z,100921.44
2022-08-21T01:42:00.079Z,100915.91
2022-08-21T01:43:03.485Z,100919.09
2022-08-21T01:44:07.906Z,100917.50
2022-08-21T01:45:11.891Z,100930.69
2022-08-21T01:46:14.781Z,100920.28
2022-08-21T01:47:17.723Z,100923.91
2022-08-21T01:48:20.535Z,100924.31
2022-08-21T01:49:22.623Z,100922.28
2022-08-21T01:50:25.262Z,100922.72
2022-08-21T01:51:27.482Z,100915.09
2022-08-21T01:52:31.496Z,100915.94
2022-08-21T01:53:36.874Z,100930.28
2022-08-21T01:54:41.597Z,100922.31
2022-08-21T01:55:44.625Z,100923.91
2022-08-21T01:56:51.241Z,100931.09
2022-08-21T01:57:53.894Z,100915.91
2022-08-21T01:58:56.361Z,100926.72
2022-08-21T01:59:58.543Z,100929.09
2022-08-21T02:01:02.763Z,100925.09
2022-08-21T02:02:05.598Z,100925.53
2022-08-21T02:03:08.477Z,100930.31
2022-08-21T02:04:11.655Z,100928.72
2022-08-21T02:05:14.548Z,100923.53
2022-08-21T02:06:19.278Z,100931.94
2022-08-21T02:07:22.554Z,100926.31
2022-08-21T02:08:24.996Z,100925.53
2022-08-21T02:09:29.991Z,100928.75
2022-08-21T02:10:34.089Z,100923.53
2022-08-21T02:11:49.284Z,100933.94
2022-08-21T02:12:58.036Z,100927.16
2022-08-21T02:14:00.327Z,100930.38
2022-08-21T02:15:05.500Z,100939.94
2022-08-21T02:16:09.195Z,100930.38
2022-08-21T02:17:11.251Z,100937.53
2022-08-21T02:18:14.800Z,100934.72
2022-08-21T02:19:25.477Z,100929.56
2022-08-21T02:20:29.821Z,100933.94
2022-08-21T02:21:34.436Z,100925.53
2022-08-21T02:22:36.739Z,100927.50
2022-08-21T02:23:39.140Z,100927.94
2022-08-21T02:24:54.469Z,100936.72
2022-08-21T02:25:59.281Z,100928.75
2022-08-21T02:27:01.536Z,100934.38
2022-08-21T02:28:12.025Z,100933.13
2022-08-21T02:29:17.145Z,100926.75
2022-08-21T02:30:29.351Z,100930.31
2022-08-21T02:31:32.626Z,100928.69
2022-08-21T02:32:34.813Z,100933.50
2022-08-21T02:33:36.986Z,100934.31
2022-08-21T02:34:40.923Z,100943.91
2022-08-21T02:35:46.424Z,100945.06
2022-08-21T02:36:59.536Z,100938.66
2022-08-21T02:38:13.020Z,100942.63
2022-08-21T02:39:16.525Z,100944.59
2022-08-21T02:40:34.794Z,100943.81
2022-08-21T02:41:37.061Z,100943.31
2022-08-21T02:42:42.529Z,100939.66
2022-08-21T02:43:45.105Z,100942.06
2022-08-21T02:44:47.755Z,100941.19
2022-08-21T02:45:50.863Z,100932.31
2022-08-21T02:46:52.915Z,100933.59
2022-08-21T02:48:10.323Z,100941.94
2022-08-21T02:49:12.585Z,100931.06
2022-08-21T02:50:14.955Z,100935.38
2022-08-21T02:51:19.655Z,100936.63
2022-08-21T02:52:25.287Z,100933.84
2022-08-21T02:53:29.421Z,100927.78
2022-08-21T02:54:31.795Z,100935.41
2022-08-21T02:55:36.376Z,100934.94
2022-08-21T02:56:39.954Z,100935.59
2022-08-21T02:57:42.132Z,100946.44
2022-08-21T02:58:54.139Z,100935.69
2022-08-21T02:59:57.295Z,100940.41
2022-08-21T03:00:59.640Z,100938.16
2022-08-21T03:02:01.938Z,100944.66
2022-08-21T03:03:04.874Z,100940.78
2022-08-21T03:04:06.949Z,100938.44
2022-08-21T03:05:11.964Z,100929.00
2022-08-21T03:06:17.528Z,100943.00
2022-08-21T03:07:19.685Z,100939.84
2022-08-21T03:08:22.751Z,100941.72
2022-08-21T03:09:29.507Z,100953.06
2022-08-21T03:10:32.261Z,100953.88
2022-08-21T03:11:34.560Z,100954.28
2022-08-21T03:12:37.295Z,100955.84
2022-08-21T03:13:40.160Z,100947.44
2022-08-21T03:14:43.249Z,100955.88
2022-08-21T03:15:45.843Z,100951.88
2022-08-21T03:16:49.020Z,100950.25
2022-08-21T03:17:55.792Z,100945.88
2022-08-21T03:18:58.164Z,100945.47
2022-08-21T03:20:00.784Z,100951.06
2022-08-21T03:21:02.979Z,100949.03
2022-08-21T03:22:05.244Z,100945.03
2022-08-21T03:23:12.586Z,100945.38
2022-08-21T03:24:16.456Z,100952.13
2022-08-21T03:25:40.020Z,100951.31
2022-08-21T03:26:43.124Z,100951.28
2022-08-21T03:27:46.133Z,100953.69
2022-08-21T03:28:51.847Z,100960.56
2022-08-21T03:29:55.229Z,100954.59
2022-08-21T03:30:57.408Z,100948.94
2022-08-21T03:32:01.766Z,100953.66
2022-08-21T03:33:06.096Z,100953.66
2022-08-21T03:34:08.230Z,100963.59
2022-08-21T03:35:11.068Z,100969.59
2022-08-21T03:36:14.321Z,100954.28
2022-08-21T03:37:19.209Z,100969.50
2022-08-21T03:38:24.584Z,100963.09
2022-08-21T03:39:28.768Z,100971.91
2022-08-21T03:40:30.788Z,100963.06
2022-08-21T03:41:32.888Z,100967.94
2022-08-21T03:42:35.114Z,100955.91
2022-08-21T03:43:37.603Z,100953.41
2022-08-21T03:44:40.957Z,100966.47
2022-08-21T03:45:43.189Z,100962.00
2022-08-21T03:46:45.844Z,100962.06
2022-08-21T03:48:05.182Z,100964.47
2022-08-21T03:49:08.018Z,100968.38
2022-08-21T03:50:10.585Z,100966.84
2022-08-21T03:51:13.371Z,100963.59
2022-08-21T03:52:16.644Z,100963.56
2022-08-21T03:53:19.038Z,100966.00
2022-08-21T03:54:21.463Z,100967.53
2022-08-21T03:55:24.488Z,100957.88
2022-08-21T03:56:26.546Z,100964.19
2022-08-21T03:57:28.554Z,100963.75
2022-08-21T03:58:30.855Z,100959.00
2022-08-21T03:59:33.054Z,100965.88
2022-08-21T04:00:35.442Z,100960.97
2022-08-21T04:01:37.936Z,100960.06
2022-08-21T04:02:40.892Z,100954.94
2022-08-21T04:03:43.414Z,100956.88
2022-08-21T04:04:45.590Z,100951.09
2022-08-21T04:05:47.743Z,100957.72
2022-08-21T04:06:50.961Z,100950.19
2022-08-21T04:07:52.973Z,100953.59
2022-08-21T04:08:55.795Z,100946.94
2022-08-21T04:09:58.400Z,100947.09
2022-08-21T04:11:01.067Z,100959.44
2022-08-21T04:12:04.795Z,100944.88
2022-08-21T04:13:08.356Z,100953.38
2022-08-21T04:14:10.952Z,100958.47
2022-08-21T04:15:14.438Z,100948.34
2022-08-21T04:16:19.356Z,100950.19
2022-08-21T04:17:22.645Z,100954.16
2022-08-21T04:18:24.922Z,100949.47
2022-08-21T04:19:27.746Z,100952.13
2022-08-21T04:20:29.866Z,100952.75
2022-08-21T04:21:33.160Z,100942.50
2022-08-21T04:22:35.415Z,100942.09
2022-08-21T04:23:38.325Z,100941.34
2022-08-21T04:24:40.595Z,100949.41
2022-08-21T04:25:42.731Z,100954.31
2022-08-21T04:26:44.886Z,100967.59
2022-08-21T04:27:47.494Z,100949.34
2022-08-21T04:28:50.096Z,100955.38
2022-08-21T04:29:52.284Z,100953.09
2022-08-21T04:30:55.127Z,100955.66
2022-08-21T04:31:57.440Z,100951.34
2022-08-21T04:33:00.936Z,100957.66
2022-08-21T04:34:04.654Z,100961.03
2022-08-21T04:35:10.941Z,100959.41
2022-08-21T04:36:13.097Z,100965.34
2022-08-21T04:37:16.844Z,100959.50
2022-08-21T04:38:20.205Z,100959.97
2022-08-21T04:39:22.328Z,100963.13
2022-08-21T04:40:31.738Z,100968.84
2022-08-21T04:41:35.047Z,100961.53
2022-08-21T04:42:46.983Z,100968.50
2022-08-21T04:43:51.540Z,100964.47
2022-08-21T04:44:53.604Z,100964.38
2022-08-21T04:45:56.029Z,100967.34
2022-08-21T04:47:00.271Z,100975.19
2022-08-21T04:48:04.540Z,100967.44
2022-08-21T04:49:06.741Z,100958.50
2022-08-21T04:50:11.806Z,100962.78
2022-08-21T04:51:36.261Z,100969.69
2022-08-21T04:52:38.976Z,100966.69
2022-08-21T04:54:04.043Z,100966.88
2022-08-21T04:55:06.623Z,100967.44
2022-08-21T04:56:16.920Z,100962.94
2022-08-21T04:57:20.132Z,100950.81
2022-08-21T04:58:25.036Z,100973.59
2022-08-21T04:59:34.646Z,100971.50
2022-08-21T05:00:38.153Z,100955.13
2022-08-21T05:01:42.044Z,100966.03
2022-08-21T05:02:44.386Z,100961.50
2022-08-21T05:03:49.897Z,100967.03
2022-08-21T05:04:55.777Z,100967.53
2022-08-21T05:05:59.241Z,100965.47
2022-08-21T05:07:05.147Z,100962.94
2022-08-21T05:08:08.793Z,100960.06
2022-08-21T05:09:14.166Z,100964.06
2022-08-21T05:10:16.255Z,100957.47
2022-08-21T05:11:18.314Z,100961.09
2022-08-21T05:12:20.456Z,100960.44
2022-08-21T05:13:23.473Z,100956.72
2022-08-21T05:14:28.400Z,100958.59
2022-08-21T05:15:33.293Z,100953.41
2022-08-21T05:16:37.758Z,100952.13
2022-08-21T05:17:40.988Z,100962.47
2022-08-21T05:18:44.327Z,100957.34
2022-08-21T05:19:46.614Z,100958.31
2022-08-21T05:21:00.087Z,100953.53
2022-08-21T05:22:05.483Z,100948.84
2022-08-21T05:23:10.399Z,100951.78
2022-08-21T05:24:13.019Z,100947.88
2022-08-21T05:25:15.065Z,100953.41
2022-08-21T05:26:21.658Z,100955.94
2022-08-21T05:27:23.872Z,100960.41
2022-08-21T05:28:29.925Z,100954.38
2022-08-21T05:29:32.569Z,100950.38
2022-08-21T05:30:35.905Z,100951.56
2022-08-21T05:31:40.509Z,100947.59
2022-08-21T05:32:42.627Z,100940.69
2022-08-21T05:33:44.611Z,100954.75
2022-08-21T05:34:47.882Z,100954.19
2022-08-21T05:35:56.800Z,100945.91
2022-08-21T05:36:58.831Z,100952.03
2022-08-21T05:38:01.739Z,100955.91
2022-08-21T05:39:04.664Z,100948.75
2022-08-21T05:40:22.370Z,100950.31
2022-08-21T05:41:25.421Z,100946.47
2022-08-21T05:42:29.045Z,100954.16
2022-08-21T05:43:31.130Z,100947.94
2022-08-21T05:44:33.283Z,100956.69
2022-08-21T05:45:42.656Z,100946.28
2022-08-21T05:46:46.009Z,100953.31
2022-08-21T05:47:48.054Z,100951.44
2022-08-21T05:48:50.070Z,100949.88
2022-08-21T05:49:52.184Z,100951.00
2022-08-21T05:50:54.274Z,100952.75
2022-08-21T05:51:56.342Z,100957.91
2022-08-21T05:53:04.376Z,100959.94
2022-08-21T05:54:09.602Z,100946.88
2022-08-21T05:55:11.678Z,100946.66
2022-08-21T05:56:14.636Z,100951.28
2022-08-21T05:57:17.118Z,100950.59
2022-08-21T05:58:21.780Z,100944.72
2022-08-21T05:59:24.033Z,100950.16
2022-08-21T06:00:26.153Z,100951.84
2022-08-21T06:01:33.395Z,100955.13
2022-08-21T06:02:35.521Z,100956.69
2022-08-21T06:03:40.330Z,100965.47
2022-08-21T06:04:42.358Z,100952.38
2022-08-21T06:05:44.686Z,100953.34
2022-08-21T06:06:47.797Z,100953.75
2022-08-21T06:07:50.120Z,100944.41
2022-08-21T06:08:52.204Z,100949.84
2022-08-21T06:09:54.277Z,100943.88
2022-08-21T06:10:58.721Z,100936.69
2022-08-21T06:12:09.511Z,100937.63
2022-08-21T06:13:12.002Z,100944.16
2022-08-21T06:14:17.608Z,100936.84
2022-08-21T06:15:20.210Z,100944.16
2022-08-21T06:16:22.981Z,100938.84
2022-08-21T06:17:25.038Z,100935.03
2022-08-21T06:18:27.295Z,100933.00
2022-08-21T06:19:29.772Z,100930.72
2022-08-21T06:20:32.654Z,100933.03
2022-08-21T06:21:35.141Z,100935.19
2022-08-21T06:22:37.313Z,100931.00
2022-08-21T06:23:39.631Z,100939.50
2022-08-21T06:24:41.725Z,100935.25
2022-08-21T06:25:45.264Z,100929.88
2022-08-21T06:26:47.603Z,100930.38
2022-08-21T06:27:50.168Z,100930.38
2022-08-21T06:28:52.622Z,100928.91
2022-08-21T06:29:54.739Z,100932.03
2022-08-21T06:30:59.302Z,100928.34
2022-08-21T06:32:01.681Z,100946.41
2022-08-21T06:33:04.375Z,100942.63
2022-08-21T06:34:06.423Z,100928.91
2022-08-21T06:35:09.235Z,100931.81
2022-08-21T06:36:11.444Z,100927.03
2022-08-21T06:37:13.611Z,100930.72
2022-08-21T06:38:20.653Z,100930.72
2022-08-21T06:39:25.456Z,100933.09
2022-08-21T06:40:34.963Z,100945.94
2022-08-21T06:41:39.140Z,100933.13
2022-08-21T06:42:42.679Z,100925.06
2022-08-21T06:43:45.314Z,100922.97
2022-08-21T06:44:49.008Z,100931.25
2022-08-21T06:45:51.469Z,100924.00
2022-08-21T06:46:53.678Z,100924.22
2022-08-21T06:47:55.789Z,100917.38
2022-08-21T06:48:58.491Z,100926.03
2022-08-21T06:50:00.723Z,100928.03
2022-08-21T06:51:03.745Z,100918.38
2022-08-21T06:52:11.327Z,100926.41
2022-08-21T06:53:16.552Z,100923.56
2022-08-21T06:54:18.626Z,100929.97
2022-08-21T06:55:21.711Z,100933.53
2022-08-21T06:56:24.456Z,100924.31
2022-08-21T06:57:26.965Z,100927.84
2022-08-21T06:58:29.365Z,100938.41
2022-08-21T06:59:32.877Z,100937.75
2022-08-21T07:00:35.921Z,100945.72
2022-08-21T07:01:38.130Z,100928.34
2022-08-21T07:02:41.510Z,100924.66
2022-08-21T07:03:44.758Z,100930.16
2022-08-21T07:04:46.775Z,100929.78
2022-08-21T07:05:49.170Z,100932.00
2022-08-21T07:06:51.408Z,100925.09
2022-08-21T07:07:53.595Z,100925.53
2022-08-21T07:08:58.895Z,100911.66
2022-08-21T07:10:01.300Z,100928.81
2022-08-21T07:11:07.870Z,100921.63
2022-08-21T07:12:11.417Z,100921.13
2022-08-21T07:13:13.716Z,100913.09
2022-08-21T07:14:20.370Z,100917.66
2022-08-21T07:15:23.132Z,100915.94
2022-08-21T07:16:26.161Z,100912.22
2022-08-21T07:17:28.614Z,100913.00
2022-08-21T07:18:30.860Z,100918.28
2022-08-21T07:19:33.107Z,100919.78
2022-08-21T07:20:36.023Z,100919.63
2022-08-21T07:21:38.356Z,100907.69
2022-08-21T07:22:41.945Z,100911.06
2022-08-21T07:23:49.660Z,100907.53
2022-08-21T07:24:51.963Z,100908.53
2022-08-21T07:25:54.416Z,100902.69
2022-08-21T07:26:57.025Z,100916.13
2022-08-21T07:27:59.160Z,100931.19
2022-08-21T07:29:01.309Z,100916.34
2022-08-21T07:30:05.056Z,100904.75
2022-08-21T07:31:07.600Z,100909.00
2022-08-21T07:32:09.674Z,100910.13
2022-08-21T07:33:12.891Z,100910.06
2022-08-21T07:34:15.388Z,100904.81
2022-08-21T07:35:18.585Z,100904.50
2022-08-21T07:36:21.187Z,100919.00
2022-08-21T07:37:23.257Z,100901.13
2022-08-21T07:38:26.367Z,100899.03
2022-08-21T07:39:28.752Z,100899.25
2022-08-21T07:40:30.941Z,100899.94
2022-08-21T07:41:33.263Z,100899.00
2022-08-21T07:42:42.670Z,100898.47
2022-08-21T07:43:46.195Z,100908.75
2022-08-21T07:44:51.406Z,100914.84
2022-08-21T07:45:59.036Z,100914.41
2022-08-21T07:47:02.430Z,100905.00
2022-08-21T07:48:07.192Z,100917.47
2022-08-21T07:49:09.399Z,100920.97
2022-08-21T07:50:13.389Z,100920.63
2022-08-21T07:51:17.873Z,100904.22
2022-08-21T07:52:21.092Z,100912.19
2022-08-21T07:53:23.338Z,100901.97
2022-08-21T07:54:33.990Z,100918.28
2022-08-21T07:55:36.787Z,100916.09
2022-08-21T07:56:39.148Z,100900.81
2022-08-21T07:57:41.427Z,100894.19
2022-08-21T07:58:43.635Z,100917.81
2022-08-21T07:59:45.770Z,100895.66
2022-08-21T08:00:48.071Z,100896.50
2022-08-21T08:01:50.236Z,100886.56
2022-08-21T08:02:54.245Z,100896.31
2022-08-21T08:03:57.341Z,100889.53
2022-08-21T08:05:02.105Z,100889.34
2022-08-21T08:06:05.892Z,100885.78
2022-08-21T08:07:08.662Z,100877.03
2022-08-21T08:08:10.800Z,100874.47
2022-08-21T08:09:13.571Z,100870.91
2022-08-21T08:10:16.998Z,100874.97
2022-08-21T08:11:19.506Z,100874.97
2022-08-21T08:12:21.900Z,100881.19
2022-08-21T08:13:24.289Z,100883.41
2022-08-21T08:14:31.373Z,100871.75
2022-08-21T08:15:37.522Z,100875.59
2022-08-21T08:16:40.109Z,100868.53
2022-08-21T08:17:42.611Z,100871.28
2022-08-21T08:18:45.867Z,100867.00
2022-08-21T08:19:49.076Z,100864.91
2022-08-21T08:20:51.284Z,100859.47
2022-08-21T08:22:00.633Z,100859.56
2022-08-21T08:23:03.112Z,100857.81
2022-08-21T08:24:19.432Z,100865.84
2022-08-21T08:25:24.142Z,100870.19
2022-08-21T08:26:26.261Z,100873.63
2022-08-21T08:27:28.637Z,100851.22
2022-08-21T08:28:33.011Z,100852.13
2022-08-21T08:29:35.376Z,100846.94
2022-08-21T08:30:38.753Z,100845.75
2022-08-21T08:31:42.070Z,100862.44
2022-08-21T08:32:44.442Z,100843.75
2022-08-21T08:33:46.520Z,100838.84
2022-08-21T08:34:49.919Z,100858.06
2022-08-21T08:35:52.682Z,100849.31
2022-08-21T08:36:55.582Z,100850.91
2022-08-21T08:37:58.794Z,100846.88
2022-08-21T08:39:06.337Z,100858.50
2022-08-21T08:40:19.667Z,100844.00
2022-08-21T08:41:23.959Z,100845.59
2022-08-21T08:42:36.846Z,100844.06
2022-08-21T08:43:39.692Z,100848.22
2022-08-21T08:44:42.943Z,100848.81
2022-08-21T08:45:49.631Z,100849.31
2022-08-21T08:46:53.670Z,100858.06
2022-08-21T08:48:03.951Z,100827.28
2022-08-21T08:49:21.538Z,100832.75
2022-08-21T08:50:29.509Z,100835.00
2022-08-21T08:51:45.391Z,100837.75
2022-08-21T08:53:04.331Z,100843.50
2022-08-21T08:54:20.654Z,100829.78
2022-08-21T08:55:27.893Z,100873.81
2022-08-21T08:56:33.773Z,100860.22
2022-08-21T08:57:36.842Z,100846.41
2022-08-21T08:58:42.809Z,100842.66
2022-08-21T08:59:49.075Z,100849.00
2022-08-21T09:00:54.676Z,100850.72
2022-08-21T09:01:57.012Z,100849.94
2022-08-21T09:03:01.946Z,100842.44
2022-08-21T09:04:04.343Z,100847.13
2022-08-21T09:05:09.059Z,100847.72
2022-08-21T09:06:30.156Z,100825.97
2022-08-21T09:08:09.344Z,100838.72
2022-08-21T09:09:28.258Z,100838.34
2022-08-21T09:10:56.434Z,100843.38
2022-08-21T09:12:10.029Z,100853.66
2022-08-21T09:13:24.265Z,100837.31
2022-08-21T09:14:41.558Z,100839.44
2022-08-21T09:15:59.338Z,100840.38
2022-08-21T09:17:33.033Z,100827.84
2022-08-21T09:18:56.135Z,100833.81
2022-08-21T09:20:01.278Z,100843.69
2022-08-21T09:21:15.192Z,100837.22
2022-08-21T09:24:21.097Z,100838.16
2022-08-21T09:24:34.169Z,100837.91
2022-08-21T09:25:57.072Z,100830.38
2022-08-21T09:27:09.475Z,100829.25
2022-08-21T09:28:13.855Z,100838.44
2022-08-21T09:29:25.941Z,100845.56
2022-08-21T09:30:32.377Z,100869.56
2022-08-21T09:31:39.949Z,100841.44
2022-08-21T09:32:42.548Z,100850.69
2022-08-21T09:33:44.676Z,100842.03
2022-08-21T09:35:06.389Z,100840.00
2022-08-21T09:36:09.194Z,100852.63
2022-08-21T09:37:19.065Z,100835.59
2022-08-21T09:38:34.419Z,100852.56
2022-08-21T09:39:43.484Z,100842.28
2022-08-21T09:40:59.167Z,100838.88
2022-08-21T09:42:06.954Z,100835.63
2022-08-21T09:43:27.665Z,100827.63
2022-08-21T09:44:33.007Z,100837.56
2022-08-21T09:45:36.581Z,100832.81
2022-08-21T09:46:38.754Z,100825.19
2022-08-21T09:47:42.370Z,100839.13
2022-08-21T09:48:47.724Z,100833.81
2022-08-21T09:49:50.526Z,100839.13
2022-08-21T09:50:54.587Z,100842.66
2022-08-21T09:52:00.778Z,100833.31
2022-08-21T09:53:04.298Z,100836.50
2022-08-21T09:54:06.271Z,100822.00
2022-08-21T09:55:38.204Z,100825.75
2022-08-21T09:57:32.031Z,100828.94
2022-08-21T09:58:36.754Z,100837.81
2022-08-21T09:59:39.356Z,100813.22
2022-08-21T10:00:41.571Z,100820.44
2022-08-21T10:01:46.857Z,100827.00
2022-08-21T10:02:49.000Z,100822.75
2022-08-21T10:04:09.107Z,100827.75
2022-08-21T10:05:19.976Z,100836.31
2022-08-21T10:06:26.166Z,100831.63
2022-08-21T10:07:32.449Z,100829.69
2022-08-21T10:08:36.677Z,100827.19
2022-08-21T10:09:39.014Z,100832.63
2022-08-21T10:10:41.220Z,100840.72
2022-08-21T10:12:11.137Z,100849.13
2022-08-21T10:13:16.833Z,100838.38
2022-08-21T10:14:27.893Z,100828.88
2022-08-21T10:16:09.050Z,100819.44
2022-08-21T10:17:51.903Z,100819.00
2022-08-21T10:19:38.442Z,100826.53
2022-08-21T10:21:01.938Z,100825.28
2022-08-21T10:22:21.345Z,100817.81
2022-08-21T10:23:38.277Z,100824.31
2022-08-21T10:25:18.759Z,100822.94
2022-08-21T10:26:23.686Z,100818.16
2022-08-21T10:27:28.532Z,100824.50
2022-08-21T10:28:50.968Z,100820.69
2022-08-21T10:30:03.004Z,100815.31
2022-08-21T10:31:22.632Z,100816.91
2022-08-21T10:32:43.079Z,100814.06
2022-08-21T10:33:54.441Z,100809.28
2022-08-21T10:35:12.552Z,100807.53
2022-08-21T10:36:29.703Z,100810.56
2022-08-21T10:37:57.399Z,100812.31
2022-08-21T10:39:36.987Z,100805.19
2022-08-21T10:41:05.881Z,100800.22
2022-08-21T10:42:36.183Z,100797.38
2022-08-21T10:44:00.718Z,100796.72
2022-08-21T10:45:15.067Z,100812.97
2022-08-21T10:46:34.967Z,100806.78
2022-08-21T10:47:43.132Z,100792.72
2022-08-21T10:49:20.421Z,100794.75
2022-08-21T10:50:28.715Z,100791.56
2022-08-21T10:51:46.231Z,100797.91
2022-08-21T10:53:06.546Z,100795.78
2022-08-21T10:54:35.812Z,100791.03
2022-08-21T10:55:52.601Z,100787.50
2022-08-21T10:57:03.410Z,100788.94
2022-08-21T10:58:15.492Z,100779.59
2022-08-21T10:59:27.050Z,100772.31
2022-08-21T11:00:56.528Z,100773.72
2022-08-21T11:02:03.227Z,100777.97
2022-08-21T11:03:09.290Z,100775.38
2022-08-21T11:04:30.044Z,100791.19
2022-08-21T11:05:53.188Z,100779.63
2022-08-21T11:07:04.613Z,100792.63
2022-08-21T11:08:20.585Z,100785.84
2022-08-21T11:09:26.859Z,100784.09
2022-08-21T11:10:51.313Z,100788.84
2022-08-21T11:12:11.499Z,100789.06
2022-08-21T11:13:37.297Z,100787.97
2022-08-21T11:14:53.038Z,100797.59
2022-08-21T11:16:06.309Z,100782.44
2022-08-21T11:17:21.777Z,100783.06
2022-08-21T11:18:42.625Z,100783.53
2022-08-21T11:19:58.131Z,100796.34
2022-08-21T11:21:41.618Z,100780.72
2022-08-21T11:23:04.551Z,100783.72
2022-08-21T11:24:18.542Z,100771.22
2022-08-21T11:25:46.348Z,100786.53
2022-08-21T11:27:29.845Z,100787.97
2022-08-21T11:28:44.057Z,100791.09
2022-08-21T11:29:51.638Z,100788.78
2022-08-21T11:31:08.568Z,100782.91
2022-08-21T11:32:46.343Z,100780.41
2022-08-21T11:34:00.484Z,100789.06
2022-08-21T11:35:41.644Z,100789.53
2022-08-21T11:36:49.662Z,100797.75
2022-08-21T11:38:25.508Z,100795.84
2022-08-21T11:39:46.989Z,100791.63
2022-08-21T11:41:08.052Z,100798.22
2022-08-21T11:42:16.172Z,100794.59
2022-08-21T11:43:23.958Z,100789.69
2022-08-21T11:44:39.357Z,100784.81
2022-08-21T11:45:54.543Z,100783.56
2022-08-21T11:47:13.366Z,100785.91
2022-08-21T11:48:50.273Z,100779.13
2022-08-21T11:49:58.203Z,100771.88
2022-08-21T11:51:05.466Z,100769.03
2022-08-21T11:52:18.812Z,100769.53
2022-08-21T11:53:41.163Z,100770.28
2022-08-21T11:54:50.888Z,100772.84
2022-08-21T11:56:03.256Z,100774.22
2022-08-21T11:57:26.328Z,100775.19
2022-08-21T11:58:34.376Z,100795.22
2022-08-21T12:00:06.301Z,100775.66
2022-08-21T12:01:23.001Z,100793.50
2022-08-21T12:02:42.400Z,100792.41
2022-08-21T12:03:58.463Z,100773.00
2022-08-21T12:05:09.207Z,100775.50
2022-08-21T12:06:24.541Z,100786.56
2022-08-21T12:07:36.703Z,100775.84
2022-08-21T12:08:45.103Z,100778.69
2022-08-21T12:09:56.304Z,100771.41
2022-08-21T12:11:30.518Z,100767.31
2022-08-21T12:12:36.228Z,100767.31
2022-08-21T12:13:53.364Z,100764.94
2022-08-21T12:15:16.232Z,100781.53
2022-08-21T12:16:39.582Z,100774.25
2022-08-21T12:17:53.170Z,100768.75
2022-08-21T12:19:12.147Z,100770.78
2022-08-21T12:20:22.972Z,100773.78
2022-08-21T12:21:28.368Z,100762.75
2022-08-21T12:22:41.896Z,100768.13
2022-08-21T12:23:46.788Z,100770.31
2022-08-21T12:25:04.404Z,100790.97
2022-08-21T12:26:12.055Z,100781.50
2022-08-21T12:27:26.593Z,100755.47
2022-08-21T12:28:31.672Z,100764.00
2022-08-21T12:29:38.461Z,100770.94
2022-08-21T12:30:47.030Z,100765.38
2022-08-21T12:32:00.485Z,100764.78
2022-08-21T12:33:20.139Z,100766.81
2022-08-21T12:34:29.689Z,100773.44
2022-08-21T12:35:39.753Z,100759.53
2022-08-21T12:36:56.198Z,100760.81
2022-08-21T12:38:03.432Z,100766.66
2022-08-21T12:39:12.706Z,100764.59
2022-08-21T12:40:42.928Z,100763.31
2022-08-21T12:41:54.040Z,100753.56
2022-08-21T12:43:00.793Z,100758.56
2022-08-21T12:44:11.704Z,100762.50
2022-08-21T12:45:33.897Z,100764.38
2022-08-21T12:46:52.368Z,100775.34
2022-08-21T12:47:59.652Z,100764.56
2022-08-21T12:49:12.066Z,100767.09